sensor_id;sensor_type;location;lat;lon;timestamp;pressure;altitude;pressure_sealevel;temperature;humidity
78123;BME280;67376;44.802;10.332;2023-08-30T00:01:05;99883.09;;;26.41;43.16
78123;BME280;67376;44.802;10.332;2023-08-30T00:03:31;99885.81;;;26.41;43.04
78123;BME280;67376;44.802;10.332;2023-08-30T00:06:01;99878.44;;;26.41;43.19
78123;BME280;67376;44.802;10.332;2023-08-30T00:08:26;99879.53;;;26.40;42.43
78123;BME280;67376;44.802;10.332;2023-08-30T00:10:52;99883.09;;;26.41;42.81
78123;BME280;67376;44.802;10.332;2023-08-30T00:13:17;99887.75;;;26.40;43.14
78123;BME280;67376;44.802;10.332;2023-08-30T00:15:42;99885.81;;;26.41;43.14
78123;BME280;67376;44.802;10.332;2023-08-30T00:18:07;99906.91;;;26.40;42.77
78123;BME280;67376;44.802;10.332;2023-08-30T00:20:33;99917.88;;;26.40;42.43
78123;BME280;67376;44.802;10.332;2023-08-30T00:22:59;99920.59;;;26.40;42.73
78123;BME280;67376;44.802;10.332;2023-08-30T00:25:24;99917.88;;;26.40;42.77
78123;BME280;67376;44.802;10.332;2023-08-30T00:27:49;99926.38;;;26.39;42.69
78123;BME280;67376;44.802;10.332;2023-08-30T00:30:14;99931.56;;;26.40;42.69
78123;BME280;67376;44.802;10.332;2023-08-30T00:32:40;99937.31;;;26.39;42.72
78123;BME280;67376;44.802;10.332;2023-08-30T00:35:05;99924.75;;;26.38;43.01
78123;BME280;67376;44.802;10.332;2023-08-30T00:37:30;99922.00;;;26.38;42.99
78123;BME280;67376;44.802;10.332;2023-08-30T00:39:56;99916.81;;;26.36;42.55
78123;BME280;67376;44.802;10.332;2023-08-30T00:42:21;99906.69;;;26.37;43.04
78123;BME280;67376;44.802;10.332;2023-08-30T00:44:46;99909.44;;;26.37;43.00
78123;BME280;67376;44.802;10.332;2023-08-30T00:47:11;99917.34;;;26.38;43.06
78123;BME280;67376;44.802;10.332;2023-08-30T00:49:37;99914.91;;;26.37;43.02
78123;BME280;67376;44.802;10.332;2023-08-30T00:52:03;99920.38;;;26.37;43.33
78123;BME280;67376;44.802;10.332;2023-08-30T00:54:30;99917.66;;;26.37;43.23
78123;BME280;67376;44.802;10.332;2023-08-30T00:56:56;99914.09;;;26.36;43.26
78123;BME280;67376;44.802;10.332;2023-08-30T00:59:21;99916.00;;;26.36;43.14
78123;BME280;67376;44.802;10.332;2023-08-30T01:01:47;99917.94;;;26.35;43.63
78123;BME280;67376;44.802;10.332;2023-08-30T01:04:13;99914.38;;;26.35;43.53
78123;BME280;67376;44.802;10.332;2023-08-30T01:06:39;99922.59;;;26.35;43.50
78123;BME280;67376;44.802;10.332;2023-08-30T01:09:04;99923.41;;;26.35;43.62
78123;BME280;67376;44.802;10.332;2023-08-30T01:11:30;99925.34;;;26.35;43.25
78123;BME280;67376;44.802;10.332;2023-08-30T01:14:04;99925.34;;;26.35;43.36
78123;BME280;67376;44.802;10.332;2023-08-30T01:16:32;99929.19;;;26.34;43.63
78123;BME280;67376;44.802;10.332;2023-08-30T01:18:57;99921.78;;;26.34;43.35
78123;BME280;67376;44.802;10.332;2023-08-30T01:22:12;99933.53;;;26.35;43.76
78123;BME280;67376;44.802;10.332;2023-08-30T01:24:10;99928.38;;;26.33;43.67
78123;BME280;67376;44.802;10.332;2023-08-30T01:29:04;99933.84;;;26.33;43.59
78123;BME280;67376;44.802;10.332;2023-08-30T01:31:31;99942.06;;;26.33;43.85
78123;BME280;67376;44.802;10.332;2023-08-30T01:33:58;99933.84;;;26.33;44.10
78123;BME280;67376;44.802;10.332;2023-08-30T01:36:24;99926.44;;;26.34;43.57
78123;BME280;67376;44.802;10.332;2023-08-30T01:38:49;99925.91;;;26.31;44.21
78123;BME280;67376;44.802;10.332;2023-08-30T01:41:15;99922.06;;;26.33;43.58
78123;BME280;67376;44.802;10.332;2023-08-30T01:43:40;99930.00;;;26.34;43.65
78123;BME280;67376;44.802;10.332;2023-08-30T01:46:06;99927.56;;;26.33;43.89
78123;BME280;67376;44.802;10.332;2023-08-30T01:48:32;99922.88;;;26.33;43.93
78123;BME280;67376;44.802;10.332;2023-08-30T01:50:58;99921.25;;;26.32;43.86
78123;BME280;67376;44.802;10.332;2023-08-30T01:53:25;99922.88;;;26.33;43.48
78123;BME280;67376;44.802;10.332;2023-08-30T01:55:51;99925.63;;;26.33;43.79
78123;BME280;67376;44.802;10.332;2023-08-30T01:58:16;99915.78;;;26.32;43.53
78123;BME280;67376;44.802;10.332;2023-08-30T02:00:41;99925.63;;;26.33;43.95
78123;BME280;67376;44.802;10.332;2023-08-30T02:03:08;99919.34;;;26.33;43.96
78123;BME280;67376;44.802;10.332;2023-08-30T02:05:33;99920.16;;;26.33;43.87
78123;BME280;67376;44.802;10.332;2023-08-30T02:08:04;99910.31;;;26.32;43.62
78123;BME280;67376;44.802;10.332;2023-08-30T02:10:38;99917.72;;;26.31;43.55
78123;BME280;67376;44.802;10.332;2023-08-30T02:13:05;99907.59;;;26.32;43.85
78123;BME280;67376;44.802;10.332;2023-08-30T02:15:31;99910.31;;;26.32;43.89
78123;BME280;67376;44.802;10.332;2023-08-30T02:17:58;99916.59;;;26.33;43.94
78123;BME280;67376;44.802;10.332;2023-08-30T02:20:24;99913.88;;;26.33;43.58
78123;BME280;67376;44.802;10.332;2023-08-30T02:22:49;99908.69;;;26.31;43.59
78123;BME280;67376;44.802;10.332;2023-08-30T02:25:15;99905.94;;;26.31;43.88
78123;BME280;67376;44.802;10.332;2023-08-30T02:27:40;99905.94;;;26.31;43.91
78123;BME280;67376;44.802;10.332;2023-08-30T02:30:05;99907.84;;;26.30;43.60
78123;BME280;67376;44.802;10.332;2023-08-30T02:32:31;99908.94;;;26.29;43.98
78123;BME280;67376;44.802;10.332;2023-08-30T02:34:56;99900.75;;;26.29;44.07
78123;BME280;67376;44.802;10.332;2023-08-30T02:37:22;99893.34;;;26.30;43.85
78123;BME280;67376;44.802;10.332;2023-08-30T02:39:47;99900.75;;;26.29;44.03
78123;BME280;67376;44.802;10.332;2023-08-30T02:42:12;99903.47;;;26.29;43.86
78123;BME280;67376;44.802;10.332;2023-08-30T02:44:38;99892.53;;;26.29;44.03
78123;BME280;67376;44.802;10.332;2023-08-30T02:47:03;99901.03;;;26.28;43.77
78123;BME280;67376;44.802;10.332;2023-08-30T02:49:28;99905.41;;;26.29;43.79
78123;BME280;67376;44.802;10.332;2023-08-30T02:51:53;99890.09;;;26.28;44.12
78123;BME280;67376;44.802;10.332;2023-08-30T02:54:19;99899.94;;;26.29;44.09
78123;BME280;67376;44.802;10.332;2023-08-30T02:56:44;99887.06;;;26.29;44.04
78123;BME280;67376;44.802;10.332;2023-08-30T02:59:09;99884.31;;;26.29;44.23
78123;BME280;67376;44.802;10.332;2023-08-30T03:01:35;99890.59;;;26.30;44.31
78123;BME280;67376;44.802;10.332;2023-08-30T03:04:00;99894.44;;;26.29;44.36
78123;BME280;67376;44.802;10.332;2023-08-30T03:06:25;99901.84;;;26.28;43.82
78123;BME280;67376;44.802;10.332;2023-08-30T03:08:51;99888.97;;;26.29;43.98
78123;BME280;67376;44.802;10.332;2023-08-30T03:11:16;99898.31;;;26.28;43.80
78123;BME280;67376;44.802;10.332;2023-08-30T03:13:41;99899.94;;;26.29;43.81
78123;BME280;67376;44.802;10.332;2023-08-30T03:16:10;99892.81;;;26.28;43.83
78123;BME280;67376;44.802;10.332;2023-08-30T03:18:36;99895.56;;;26.28;43.94
78123;BME280;67376;44.802;10.332;2023-08-30T03:21:01;99883.81;;;26.27;44.15
78123;BME280;67376;44.802;10.332;2023-08-30T03:23:27;99890.09;;;26.28;44.13
78123;BME280;67376;44.802;10.332;2023-08-30T03:25:52;99881.88;;;26.28;43.69
78123;BME280;67376;44.802;10.332;2023-08-30T03:28:17;99892.81;;;26.28;44.24
78123;BME280;67376;44.802;10.332;2023-08-30T03:30:43;99885.72;;;26.27;43.93
78123;BME280;67376;44.802;10.332;2023-08-30T03:33:08;99886.53;;;26.27;43.88
78123;BME280;67376;44.802;10.332;2023-08-30T03:35:34;99885.72;;;26.27;44.25
78123;BME280;67376;44.802;10.332;2023-08-30T03:38:00;99883.00;;;26.27;44.16
78123;BME280;67376;44.802;10.332;2023-08-30T03:40:25;99881.06;;;26.27;44.27
78123;BME280;67376;44.802;10.332;2023-08-30T03:42:52;99886.53;;;26.27;44.02
78123;BME280;67376;44.802;10.332;2023-08-30T03:45:17;99889.28;;;26.27;43.90
78123;BME280;67376;44.802;10.332;2023-08-30T03:47:42;99902.97;;;26.27;44.36
78123;BME280;67376;44.802;10.332;2023-08-30T03:50:07;99905.69;;;26.27;44.13
78123;BME280;67376;44.802;10.332;2023-08-30T03:52:34;99900.22;;;26.27;44.58
78123;BME280;67376;44.802;10.332;2023-08-30T03:55:00;99902.97;;;26.27;44.51
78123;BME280;67376;44.802;10.332;2023-08-30T03:57:25;99902.97;;;26.27;44.38
78123;BME280;67376;44.802;10.332;2023-08-30T03:59:51;99896.69;;;26.27;44.45
78123;BME280;67376;44.802;10.332;2023-08-30T04:02:16;99901.03;;;26.28;44.23
78123;BME280;67376;44.802;10.332;2023-08-30T04:04:41;99897.78;;;26.26;44.34
78123;BME280;67376;44.802;10.332;2023-08-30T04:07:07;99891.19;;;26.27;44.37
78123;BME280;67376;44.802;10.332;2023-08-30T04:09:32;99900.53;;;26.26;44.11
78123;BME280;67376;44.802;10.332;2023-08-30T04:11:57;99899.72;;;26.25;44.34
78123;BME280;67376;44.802;10.332;2023-08-30T04:14:24;99903.25;;;26.26;44.44
78123;BME280;67376;44.802;10.332;2023-08-30T04:16:49;99902.44;;;26.25;44.33
78123;BME280;67376;44.802;10.332;2023-08-30T04:19:14;99896.97;;;26.25;44.24
78123;BME280;67376;44.802;10.332;2023-08-30T04:21:40;99900.53;;;26.26;44.24
78123;BME280;67376;44.802;10.332;2023-08-30T04:24:05;99906.00;;;26.26;44.10
78123;BME280;67376;44.802;10.332;2023-08-30T04:26:30;99903.25;;;26.26;43.83
78123;BME280;67376;44.802;10.332;2023-08-30T04:28:56;99906.00;;;26.26;43.97
78123;BME280;67376;44.802;10.332;2023-08-30T04:31:21;99899.72;;;26.25;44.16
78123;BME280;67376;44.802;10.332;2023-08-30T04:33:46;99907.91;;;26.25;43.76
78123;BME280;67376;44.802;10.332;2023-08-30T04:36:11;99908.22;;;26.24;44.05
78123;BME280;67376;44.802;10.332;2023-08-30T04:38:37;99909.03;;;26.24;43.63
78123;BME280;67376;44.802;10.332;2023-08-30T04:41:02;99903.56;;;26.24;44.32
78123;BME280;67376;44.802;10.332;2023-08-30T04:43:27;99909.84;;;26.25;43.79
78123;BME280;67376;44.802;10.332;2023-08-30T04:45:53;99907.09;;;26.25;43.49
78123;BME280;67376;44.802;10.332;2023-08-30T04:48:18;99906.28;;;26.24;43.69
78123;BME280;67376;44.802;10.332;2023-08-30T04:50:44;99908.22;;;26.24;43.88
78123;BME280;67376;44.802;10.332;2023-08-30T04:53:09;99903.84;;;26.23;43.61
78123;BME280;67376;44.802;10.332;2023-08-30T04:55:34;99897.25;;;26.24;43.64
78123;BME280;67376;44.802;10.332;2023-08-30T04:58:00;99905.47;;;26.24;43.70
78123;BME280;67376;44.802;10.332;2023-08-30T05:00:25;99907.41;;;26.23;43.86
78123;BME280;67376;44.802;10.332;2023-08-30T05:02:50;99911.25;;;26.22;43.59
78123;BME280;67376;44.802;10.332;2023-08-30T05:05:15;99913.69;;;26.24;44.07
78123;BME280;67376;44.802;10.332;2023-08-30T05:07:41;99906.88;;;26.21;44.12
78123;BME280;67376;44.802;10.332;2023-08-30T05:10:06;99920.56;;;26.21;44.13
78123;BME280;67376;44.802;10.332;2023-08-30T05:12:34;99917.00;;;26.21;43.98
78123;BME280;67376;44.802;10.332;2023-08-30T05:15:00;99927.97;;;26.21;44.34
78123;BME280;67376;44.802;10.332;2023-08-30T05:17:25;99928.78;;;26.21;44.08
78123;BME280;67376;44.802;10.332;2023-08-30T05:19:53;99933.44;;;26.21;44.51
78123;BME280;67376;44.802;10.332;2023-08-30T05:22:18;99933.94;;;26.23;43.75
78123;BME280;67376;44.802;10.332;2023-08-30T05:24:43;99936.38;;;26.24;44.28
78123;BME280;67376;44.802;10.332;2023-08-30T05:27:08;99934.47;;;26.25;44.02
78123;BME280;67376;44.802;10.332;2023-08-30T05:29:34;99937.50;;;26.23;44.10
78123;BME280;67376;44.802;10.332;2023-08-30T05:31:59;99938.59;;;26.22;44.01
78123;BME280;67376;44.802;10.332;2023-08-30T05:34:24;99940.22;;;26.23;43.81
78123;BME280;67376;44.802;10.332;2023-08-30T05:36:52;99938.59;;;26.22;44.43
78123;BME280;67376;44.802;10.332;2023-08-30T05:39:17;99940.53;;;26.22;43.75
78123;BME280;67376;44.802;10.332;2023-08-30T05:41:43;99942.16;;;26.23;44.06
78123;BME280;67376;44.802;10.332;2023-08-30T05:44:08;99942.97;;;26.23;43.91
78123;BME280;67376;44.802;10.332;2023-08-30T05:46:34;99946.81;;;26.22;44.24
78123;BME280;67376;44.802;10.332;2023-08-30T05:48:59;99955.84;;;26.23;43.54
78123;BME280;67376;44.802;10.332;2023-08-30T05:51:27;99955.03;;;26.22;44.06
78123;BME280;67376;44.802;10.332;2023-08-30T05:53:52;99960.50;;;26.22;43.88
78123;BME280;67376;44.802;10.332;2023-08-30T05:56:18;99957.75;;;26.22;43.77
78123;BME280;67376;44.802;10.332;2023-08-30T05:58:43;99961.03;;;26.24;43.93
78123;BME280;67376;44.802;10.332;2023-08-30T06:01:08;99970.63;;;26.22;43.89
78123;BME280;67376;44.802;10.332;2023-08-30T06:03:33;99971.44;;;26.22;44.11
78123;BME280;67376;44.802;10.332;2023-08-30T06:05:59;99970.63;;;26.22;44.08
78123;BME280;67376;44.802;10.332;2023-08-30T06:08:24;99970.94;;;26.20;44.31
78123;BME280;67376;44.802;10.332;2023-08-30T06:10:50;99972.56;;;26.21;44.19
78123;BME280;67376;44.802;10.332;2023-08-30T06:13:15;99969.81;;;26.21;44.12
78123;BME280;67376;44.802;10.332;2023-08-30T06:15:40;99971.75;;;26.21;44.43
78123;BME280;67376;44.802;10.332;2023-08-30T06:18:06;99969.28;;;26.19;43.92
78123;BME280;67376;44.802;10.332;2023-08-30T06:20:31;99966.56;;;26.19;43.63
78123;BME280;67376;44.802;10.332;2023-08-30T06:23:03;99971.22;;;26.19;43.85
78123;BME280;67376;44.802;10.332;2023-08-30T06:25:28;99971.75;;;26.21;44.07
78123;BME280;67376;44.802;10.332;2023-08-30T06:27:57;99976.41;;;26.20;43.87
78123;BME280;67376;44.802;10.332;2023-08-30T06:30:24;99980.25;;;26.19;43.51
78123;BME280;67376;44.802;10.332;2023-08-30T06:32:49;99974.75;;;26.19;43.85
78123;BME280;67376;44.802;10.332;2023-08-30T06:35:15;99985.72;;;26.19;43.68
78123;BME280;67376;44.802;10.332;2023-08-30T06:37:40;99999.41;;;26.19;43.29
78123;BME280;67376;44.802;10.332;2023-08-30T06:40:05;99996.94;;;26.18;43.49
78123;BME280;67376;44.802;10.332;2023-08-30T06:42:31;100003.25;;;26.18;43.84
78123;BME280;67376;44.802;10.332;2023-08-30T06:44:56;100001.31;;;26.19;43.92
78123;BME280;67376;44.802;10.332;2023-08-30T06:47:21;100006.50;;;26.20;43.99
78123;BME280;67376;44.802;10.332;2023-08-30T06:49:46;100009.22;;;26.20;43.62
78123;BME280;67376;44.802;10.332;2023-08-30T06:52:12;100006.78;;;26.19;43.97
78123;BME280;67376;44.802;10.332;2023-08-30T06:54:37;100005.97;;;26.18;43.64
78123;BME280;67376;44.802;10.332;2023-08-30T06:57:02;100005.69;;;26.20;43.84
78123;BME280;67376;44.802;10.332;2023-08-30T06:59:28;100003.75;;;26.20;43.80
78123;BME280;67376;44.802;10.332;2023-08-30T07:01:53;100013.88;;;26.20;43.29
78123;BME280;67376;44.802;10.332;2023-08-30T07:04:18;100023.22;;;26.19;43.60
78123;BME280;67376;44.802;10.332;2023-08-30T07:06:44;100015.00;;;26.19;43.06
78123;BME280;67376;44.802;10.332;2023-08-30T07:09:09;100024.03;;;26.19;43.44
78123;BME280;67376;44.802;10.332;2023-08-30T07:11:36;100025.41;;;26.17;43.17
78123;BME280;67376;44.802;10.332;2023-08-30T07:14:01;100032.81;;;26.16;42.76
78123;BME280;67376;44.802;10.332;2023-08-30T07:16:26;100034.72;;;26.16;43.04
78123;BME280;67376;44.802;10.332;2023-08-30T07:18:52;100037.47;;;26.16;43.03
78123;BME280;67376;44.802;10.332;2023-08-30T07:21:17;100035.25;;;26.18;43.17
78123;BME280;67376;44.802;10.332;2023-08-30T07:23:43;100028.16;;;26.17;43.41
78123;BME280;67376;44.802;10.332;2023-08-30T07:26:08;100029.25;;;26.16;42.98
78123;BME280;67376;44.802;10.332;2023-08-30T07:28:34;100026.00;;;26.14;42.90
78123;BME280;67376;44.802;10.332;2023-08-30T07:31:02;100029.56;;;26.14;42.99
78123;BME280;67376;44.802;10.332;2023-08-30T07:33:28;100026.00;;;26.14;42.76
78123;BME280;67376;44.802;10.332;2023-08-30T07:35:53;100026.28;;;26.12;43.35
78123;BME280;67376;44.802;10.332;2023-08-30T07:38:19;100028.75;;;26.14;43.23
78123;BME280;67376;44.802;10.332;2023-08-30T07:40:44;100026.00;;;26.14;43.02
78123;BME280;67376;44.802;10.332;2023-08-30T07:43:09;100032.28;;;26.14;43.18
78123;BME280;67376;44.802;10.332;2023-08-30T07:45:34;100034.44;;;26.17;42.98
78123;BME280;67376;44.802;10.332;2023-08-30T07:47:59;100030.38;;;26.15;42.55
78123;BME280;67376;44.802;10.332;2023-08-30T07:50:25;100034.72;;;26.16;42.73
78123;BME280;67376;44.802;10.332;2023-08-30T07:52:50;100038.56;;;26.15;42.89
78123;BME280;67376;44.802;10.332;2023-08-30T07:55:15;100037.47;;;26.16;43.25
78123;BME280;67376;44.802;10.332;2023-08-30T07:57:40;100033.91;;;26.15;43.33
78123;BME280;67376;44.802;10.332;2023-08-30T08:00:06;100034.72;;;26.16;42.99
78123;BME280;67376;44.802;10.332;2023-08-30T08:02:31;100042.13;;;26.15;43.41
78123;BME280;67376;44.802;10.332;2023-08-30T08:04:56;100039.38;;;26.15;43.20
78123;BME280;67376;44.802;10.332;2023-08-30T08:07:22;100039.09;;;26.17;43.26
78123;BME280;67376;44.802;10.332;2023-08-30T08:09:47;100040.72;;;26.18;43.26
78123;BME280;67376;44.802;10.332;2023-08-30T08:12:12;100041.25;;;26.20;43.43
78123;BME280;67376;44.802;10.332;2023-08-30T08:14:37;100045.63;;;26.21;43.25
78123;BME280;67376;44.802;10.332;2023-08-30T08:17:04;100037.41;;;26.21;43.41
78123;BME280;67376;44.802;10.332;2023-08-30T08:19:29;100037.13;;;26.22;43.13
78123;BME280;67376;44.802;10.332;2023-08-30T08:21:54;100038.75;;;26.23;43.12
78123;BME280;67376;44.802;10.332;2023-08-30T08:24:19;100036.84;;;26.24;42.36
78123;BME280;67376;44.802;10.332;2023-08-30T08:26:45;100039.84;;;26.22;42.54
78123;BME280;67376;44.802;10.332;2023-08-30T08:29:11;100050.00;;;26.22;41.85
78123;BME280;67376;44.802;10.332;2023-08-30T08:31:36;100050.81;;;26.22;42.30
78123;BME280;67376;44.802;10.332;2023-08-30T08:34:08;100044.50;;;26.22;42.96
78123;BME280;67376;44.802;10.332;2023-08-30T08:36:34;100051.91;;;26.21;41.54
78123;BME280;67376;44.802;10.332;2023-08-30T08:39:00;100054.13;;;26.19;41.62
78123;BME280;67376;44.802;10.332;2023-08-30T08:41:26;100056.84;;;26.19;41.95
78123;BME280;67376;44.802;10.332;2023-08-30T08:43:53;100054.94;;;26.20;41.73
78123;BME280;67376;44.802;10.332;2023-08-30T08:46:18;100058.50;;;26.20;41.71
78123;BME280;67376;44.802;10.332;2023-08-30T08:48:45;100056.84;;;26.19;41.59
78123;BME280;67376;44.802;10.332;2023-08-30T08:51:12;100060.13;;;26.21;41.27
78123;BME280;67376;44.802;10.332;2023-08-30T08:53:39;100063.66;;;26.22;42.19
78123;BME280;67376;44.802;10.332;2023-08-30T08:56:04;100061.75;;;26.22;41.74
78123;BME280;67376;44.802;10.332;2023-08-30T08:58:31;100071.59;;;26.23;41.88
78123;BME280;67376;44.802;10.332;2023-08-30T09:00:57;100067.22;;;26.22;41.51
78123;BME280;67376;44.802;10.332;2023-08-30T09:03:22;100066.69;;;26.20;41.38
78123;BME280;67376;44.802;10.332;2023-08-30T09:05:48;100063.97;;;26.20;42.58
78123;BME280;67376;44.802;10.332;2023-08-30T09:08:14;100065.31;;;26.23;41.89
78123;BME280;67376;44.802;10.332;2023-08-30T09:10:40;100070.47;;;26.24;42.21
78123;BME280;67376;44.802;10.332;2023-08-30T09:13:06;100075.16;;;26.24;41.78
78123;BME280;67376;44.802;10.332;2023-08-30T09:15:31;100072.41;;;26.24;41.85
78123;BME280;67376;44.802;10.332;2023-08-30T09:17:57;100065.00;;;26.24;41.92
78123;BME280;67376;44.802;10.332;2023-08-30T09:20:22;100071.81;;;26.27;41.50
78123;BME280;67376;44.802;10.332;2023-08-30T09:22:48;100066.34;;;26.27;41.84
78123;BME280;67376;44.802;10.332;2023-08-30T09:25:22;100067.16;;;26.27;41.55
78123;BME280;67376;44.802;10.332;2023-08-30T09:27:49;100067.97;;;26.28;41.70
78123;BME280;67376;44.802;10.332;2023-08-30T09:30:14;100064.94;;;26.29;41.74
78123;BME280;67376;44.802;10.332;2023-08-30T09:32:40;100067.69;;;26.29;42.34
78123;BME280;67376;44.802;10.332;2023-08-30T09:35:06;100080.56;;;26.29;42.18
78123;BME280;67376;44.802;10.332;2023-08-30T09:37:31;100082.19;;;26.30;42.36
78123;BME280;67376;44.802;10.332;2023-08-30T09:39:57;100072.91;;;26.31;41.95
78123;BME280;67376;44.802;10.332;2023-08-30T09:42:22;100077.53;;;26.30;42.25
78123;BME280;67376;44.802;10.332;2023-08-30T09:44:47;100079.44;;;26.30;42.21
78123;BME280;67376;44.802;10.332;2023-08-30T09:47:13;100080.28;;;26.30;41.96
78123;BME280;67376;44.802;10.332;2023-08-30T09:49:43;100081.94;;;26.31;42.14
78123;BME280;67376;44.802;10.332;2023-08-30T09:52:10;100088.22;;;26.32;42.27
78123;BME280;67376;44.802;10.332;2023-08-30T09:54:35;100083.28;;;26.34;42.42
78123;BME280;67376;44.802;10.332;2023-08-30T09:57:06;100082.16;;;26.35;42.07
78123;BME280;67376;44.802;10.332;2023-08-30T09:59:32;100084.91;;;26.35;42.98
78123;BME280;67376;44.802;10.332;2023-08-30T10:01:57;100089.28;;;26.36;42.33
78123;BME280;67376;44.802;10.332;2023-08-30T10:04:25;100080.25;;;26.36;42.76
78123;BME280;67376;44.802;10.332;2023-08-30T10:06:50;100083.78;;;26.36;43.05
78123;BME280;67376;44.802;10.332;2023-08-30T10:09:16;100077.22;;;26.37;42.82
78123;BME280;67376;44.802;10.332;2023-08-30T10:11:44;100073.66;;;26.37;42.99
78123;BME280;67376;44.802;10.332;2023-08-30T10:14:10;100066.25;;;26.37;42.91
78123;BME280;67376;44.802;10.332;2023-08-30T10:19:14;100069.81;;;26.38;43.29
78123;BME280;67376;44.802;10.332;2023-08-30T10:21:39;100075.28;;;26.38;42.79
78123;BME280;67376;44.802;10.332;2023-08-30T10:24:07;100069.81;;;26.38;42.74
78123;BME280;67376;44.802;10.332;2023-08-30T10:26:34;100072.25;;;26.39;42.63
78123;BME280;67376;44.802;10.332;2023-08-30T10:29:00;100076.91;;;26.39;43.04
78123;BME280;67376;44.802;10.332;2023-08-30T10:31:26;100072.25;;;26.39;42.63
78123;BME280;67376;44.802;10.332;2023-08-30T10:33:52;100071.44;;;26.39;43.19
78123;BME280;67376;44.802;10.332;2023-08-30T10:36:24;100068.72;;;26.39;42.86
78123;BME280;67376;44.802;10.332;2023-08-30T10:38:50;100069.53;;;26.39;42.81
78123;BME280;67376;44.802;10.332;2023-08-30T10:41:23;100062.41;;;26.38;42.82
78123;BME280;67376;44.802;10.332;2023-08-30T10:43:49;100065.97;;;26.39;42.83
78123;BME280;67376;44.802;10.332;2023-08-30T10:46:16;100059.69;;;26.38;42.83
78123;BME280;67376;44.802;10.332;2023-08-30T10:48:41;100052.56;;;26.37;43.09
78123;BME280;67376;44.802;10.332;2023-08-30T10:51:20;100048.72;;;26.38;42.85
78123;BME280;67376;44.802;10.332;2023-08-30T10:53:56;100046.81;;;26.39;42.64
78123;BME280;67376;44.802;10.332;2023-08-30T10:56:26;100046.00;;;26.38;42.35
78123;BME280;67376;44.802;10.332;2023-08-30T10:58:52;100046.00;;;26.38;42.57
78123;BME280;67376;44.802;10.332;2023-08-30T11:01:17;100039.41;;;26.39;42.98
78123;BME280;67376;44.802;10.332;2023-08-30T11:03:43;100026.84;;;26.38;42.80
78123;BME280;67376;44.802;10.332;2023-08-30T11:06:13;100035.84;;;26.39;42.55
78123;BME280;67376;44.802;10.332;2023-08-30T11:08:38;100036.97;;;26.38;42.88
78123;BME280;67376;44.802;10.332;2023-08-30T11:11:04;100026.03;;;26.38;42.40
78123;BME280;67376;44.802;10.332;2023-08-30T11:13:30;100035.03;;;26.38;42.47
78123;BME280;67376;44.802;10.332;2023-08-30T11:15:59;100033.13;;;26.39;42.69
78123;BME280;67376;44.802;10.332;2023-08-30T11:18:24;100033.41;;;26.37;43.07
78123;BME280;67376;44.802;10.332;2023-08-30T11:20:53;100035.03;;;26.38;42.22
78123;BME280;67376;44.802;10.332;2023-08-30T11:23:18;100032.31;;;26.38;42.57
78123;BME280;67376;44.802;10.332;2023-08-30T11:25:49;100024.09;;;26.38;42.45
78123;BME280;67376;44.802;10.332;2023-08-30T11:28:21;100029.56;;;26.38;42.63
78123;BME280;67376;44.802;10.332;2023-08-30T11:30:46;100013.16;;;26.38;42.01
78123;BME280;67376;44.802;10.332;2023-08-30T11:33:11;100019.72;;;26.37;42.36
78123;BME280;67376;44.802;10.332;2023-08-30T11:35:36;100009.59;;;26.38;42.29
78123;BME280;67376;44.802;10.332;2023-08-30T11:38:02;100010.69;;;26.37;42.43
78123;BME280;67376;44.802;10.332;2023-08-30T11:40:27;100021.34;;;26.38;42.31
78123;BME280;67376;44.802;10.332;2023-08-30T11:42:52;100020.53;;;26.38;42.07
78123;BME280;67376;44.802;10.332;2023-08-30T11:45:19;100011.53;;;26.37;42.65
78123;BME280;67376;44.802;10.332;2023-08-30T11:47:44;100015.06;;;26.38;42.39
78123;BME280;67376;44.802;10.332;2023-08-30T11:50:09;100011.53;;;26.37;42.41
78123;BME280;67376;44.802;10.332;2023-08-30T11:52:37;100005.22;;;26.37;42.39
78123;BME280;67376;44.802;10.332;2023-08-30T11:55:03;100007.16;;;26.36;42.71
78123;BME280;67376;44.802;10.332;2023-08-30T11:57:32;100007.97;;;26.37;42.38
78123;BME280;67376;44.802;10.332;2023-08-30T12:00:06;100002.50;;;26.37;42.12
78123;BME280;67376;44.802;10.332;2023-08-30T12:02:31;99994.28;;;26.37;42.32
78123;BME280;67376;44.802;10.332;2023-08-30T12:04:57;100006.03;;;26.37;42.52
78123;BME280;67376;44.802;10.332;2023-08-30T12:07:24;99997.84;;;26.37;42.46
78123;BME280;67376;44.802;10.332;2023-08-30T12:09:50;100003.31;;;26.37;42.00
78123;BME280;67376;44.802;10.332;2023-08-30T12:12:15;100006.03;;;26.37;42.45
78123;BME280;67376;44.802;10.332;2023-08-30T12:14:41;100006.03;;;26.37;42.54
78123;BME280;67376;44.802;10.332;2023-08-30T12:17:08;100001.38;;;26.38;42.43
78123;BME280;67376;44.802;10.332;2023-08-30T12:19:33;100004.13;;;26.38;42.53
78123;BME280;67376;44.802;10.332;2023-08-30T12:22:05;99996.72;;;26.38;42.28
78123;BME280;67376;44.802;10.332;2023-08-30T12:24:41;99988.50;;;26.38;42.74
78123;BME280;67376;44.802;10.332;2023-08-30T12:27:06;99992.06;;;26.39;42.56
78123;BME280;67376;44.802;10.332;2023-08-30T12:29:31;99985.78;;;26.38;42.28
78123;BME280;67376;44.802;10.332;2023-08-30T12:31:57;99994.00;;;26.38;43.13
78123;BME280;67376;44.802;10.332;2023-08-30T12:34:22;99995.63;;;26.39;42.82
78123;BME280;67376;44.802;10.332;2023-08-30T12:36:47;99990.13;;;26.39;43.03
78123;BME280;67376;44.802;10.332;2023-08-30T12:39:12;99991.25;;;26.38;42.44
78123;BME280;67376;44.802;10.332;2023-08-30T12:41:38;99992.06;;;26.39;42.52
78123;BME280;67376;44.802;10.332;2023-08-30T12:44:04;99994.81;;;26.39;42.67